METAR Data
IDs: Format: Raw Decoded Include TAF

Data at: 0118 UTC 06 Dec 2019

KGKT 060115Z AUTO 00000KT 10SM CLR 03/M02 A3014 RMK A01
KGKT 060055Z AUTO 00000KT 10SM CLR 04/M02 A3014 RMK A01
KGKT 060035Z AUTO 00000KT 10SM CLR 04/M02 A3014 RMK A01
KGKT 060015Z AUTO 00000KT 10SM CLR 06/M03 A3014 RMK A01
KGKT 052355Z AUTO 00000KT 10SM CLR 06/M02 A3014 RMK A01
KGKT 052335Z AUTO 00000KT 10SM CLR 07/M02 A3013 RMK A01
KGKT 052315Z AUTO 00000KT 10SM CLR 08/M04 A3013 RMK A01
KGKT 052255Z AUTO 00000KT 10SM CLR 09/M03 A3013 RMK A01
KGKT 052230Z AUTO 00000KT 10SM CLR 10/M04 A3013 RMK A01
KGKT 052210Z AUTO 00000KT 10SM CLR 13/M04 A3012 RMK A01
KGKT 052155Z AUTO 36003KT 10SM CLR 13/M05 A3012 RMK A01
KGKT 052135Z AUTO 34005KT 10SM CLR 14/M05 A3013 RMK A01
KGKT 052115Z AUTO 00000KT 10SM CLR 15/M05 A3012 RMK A01
KGKT 052055Z AUTO VRB03KT 10SM CLR 15/M05 A3012 RMK A01
KGKT 052035Z AUTO 32005KT 10SM CLR 15/M05 A3012 RMK A01
KGKT 052015Z AUTO 31003KT 10SM CLR 15/M05 A3011 RMK A01
KGKT 051955Z AUTO VRB04KT 10SM CLR 15/M05 A3012 RMK A01
KGKT 051935Z AUTO 29004KT 10SM CLR 15/M05 A3011 RMK A01
KGKT 051915Z AUTO VRB03KT 10SM CLR 15/M05 A3012 RMK A01
KGKT 051855Z AUTO VRB03KT 10SM CLR 14/M06 A3011 RMK A01
KGKT 051835Z AUTO VRB04KT 10SM CLR 15/M05 A3011 RMK A01
KGKT 051815Z AUTO 28005KT 10SM CLR 14/M04 A3012 RMK A01
KGKT 051755Z AUTO 32006KT 10SM CLR 13/M04 A3012 RMK A01
KGKT 051735Z AUTO 00000KT 10SM CLR 14/M04 A3013 RMK A01
KGKT 051715Z AUTO VRB04KT 10SM CLR 13/M03 A3013 RMK A01
KGKT 051655Z AUTO 00000KT 10SM CLR 13/M02 A3014 RMK A01
KGKT 051615Z AUTO 00000KT 10SM CLR 11/M01 A3015 RMK A01
KGKT 051555Z AUTO 00000KT 10SM CLR 10/M01 A3015 RMK A01
KGKT 051535Z AUTO 00000KT 10SM CLR 09/M01 A3015 RMK A01
KGKT 051515Z AUTO 00000KT 10SM CLR 07/M01 A3015 RMK A01
KGKT 051455Z AUTO 00000KT 10SM CLR 06/M01 A3013 RMK A01
KGKT 051435Z AUTO 00000KT 10SM CLR 04/M00 A3013 RMK A01
KGKT 051415Z AUTO 00000KT 10SM CLR 02/M00 A3012 RMK A01
KGKT 051355Z AUTO 00000KT 10SM CLR 00/M02 A3012 RMK A01
KGKT 051335Z AUTO 00000KT 10SM CLR M01/M03 A3012 RMK A01
KGKT 051315Z AUTO 00000KT 10SM CLR M02/M03 A3011 RMK A01
KGKT 051255Z AUTO 00000KT 10SM CLR M02/M03 A3010 RMK A01
KGKT 051235Z AUTO 06004KT 10SM CLR M03/M03 A3009 RMK A01
KGKT 051215Z AUTO 00000KT 10SM CLR M02/M03 A3009 RMK A01
KGKT 051155Z AUTO 00000KT 10SM CLR M02/M03 A3008 RMK A01
KGKT 051135Z AUTO 00000KT 10SM CLR M02/M03 A3007 RMK A01
KGKT 051115Z AUTO 00000KT 10SM CLR M02/M03 A3007 RMK A01
KGKT 051055Z AUTO 00000KT 10SM CLR M02/M03 A3006 RMK A01
KGKT 051035Z AUTO 00000KT 10SM CLR M02/M03 A3006 RMK A01
KGKT 051015Z AUTO 00000KT 10SM CLR M02/M03 A3006 RMK A01
KGKT 050955Z AUTO 00000KT 10SM CLR M02/M03 A3005 RMK A01
KGKT 050935Z AUTO 00000KT 10SM CLR M01/M03 A3005 RMK A01
KGKT 050915Z AUTO 00000KT 10SM CLR M01/M03 A3004 RMK A01
KGKT 050855Z AUTO 00000KT 10SM CLR M01/M03 A3004 RMK A01
KGKT 050835Z AUTO 00000KT 10SM CLR M01/M03 A3003 RMK A01
KGKT 050815Z AUTO 00000KT 10SM CLR M00/M03 A3003 RMK A01
KGKT 050755Z AUTO 00000KT 10SM CLR 00/M03 A3002 RMK A01
KGKT 050735Z AUTO 00000KT 10SM CLR 00/M03 A3002 RMK A01
KGKT 050715Z AUTO 00000KT 10SM CLR 01/M03 A3001 RMK A01
KGKT 050655Z AUTO 00000KT 10SM CLR 01/M03 A3000 RMK A01
KGKT 050635Z AUTO 00000KT 10SM CLR 01/M03 A2999 RMK A01
KGKT 050615Z AUTO 00000KT 10SM CLR 02/M03 A2998 RMK A01
KGKT 050555Z AUTO 00000KT 10SM CLR 04/M03 A2998 RMK A01
KGKT 050535Z AUTO 00000KT 10SM CLR 04/M03 A2998 RMK A01
KGKT 050515Z AUTO 00000KT 10SM CLR 05/M03 A2998 RMK A01
KGKT 050455Z AUTO 21003KT 10SM CLR 06/M03 A2997 RMK A01
KGKT 050435Z AUTO 00000KT 10SM CLR 06/M03 A2997 RMK A01
KGKT 050415Z AUTO 23006KT 10SM CLR 06/M03 A2996 RMK A01
KGKT 050355Z AUTO 21005KT 10SM CLR 07/M03 A2996 RMK A01
KGKT 050335Z AUTO 22005KT 10SM CLR 07/M03 A2995 RMK A01
KGKT 050315Z AUTO 22005KT 10SM CLR 08/M03 A2995 RMK A01
KGKT 050255Z AUTO 22006KT 10SM CLR 08/M03 A2995 RMK A01
KGKT 050235Z AUTO 22008KT 10SM CLR 08/M03 A2994 RMK A01
KGKT 050215Z AUTO 22007KT 10SM CLR 08/M03 A2993 RMK A01
KGKT 050155Z AUTO 22007KT 10SM CLR 08/M03 A2993 RMK A01
KGKT 050135Z AUTO 22009KT 10SM CLR 08/M02 A2993 RMK A01
KGKT 050115Z AUTO 22007KT 10SM CLR 08/M02 A2992 RMK A01
KGKT 050055Z AUTO 22006KT 10SM CLR 08/M02 A2991 RMK A01
KGKT 050035Z AUTO 23006KT 10SM CLR 09/M02 A2991 RMK A01
KGKT 050015Z AUTO 23010KT 10SM CLR 09/M02 A2990 RMK A01
KGKT 042355Z AUTO 23008KT 10SM CLR 10/M02 A2989 RMK A01
KGKT 042335Z AUTO 22007KT 10SM CLR 09/M02 A2988 RMK A01
KGKT 042315Z AUTO 23009KT 10SM CLR 10/M02 A2987 RMK A01
KGKT 042255Z AUTO 25005G13KT 10SM CLR 10/M02 A2986 RMK A01
KGKT 042235Z AUTO 24008G14KT 10SM CLR 11/M02 A2985 RMK A01
KGKT 042215Z AUTO 24007G14KT 10SM CLR 11/M02 A2985 RMK A01
KGKT 042155Z AUTO 23007G12KT 10SM CLR 12/M02 A2984 RMK A01
KGKT 042135Z AUTO 23011KT 10SM CLR 12/M02 A2984 RMK A01
KGKT 042115Z AUTO 23009G15KT 10SM CLR 13/M02 A2983 RMK A01
KGKT 042055Z AUTO 26012G18KT 10SM CLR 13/M02 A2983 RMK A01
KGKT 042035Z AUTO 24010G17KT 10SM CLR 13/M02 A2983 RMK A01
KGKT 042015Z AUTO 27009G16KT 10SM CLR 13/M02 A2983 RMK A01
KGKT 041955Z AUTO 26013G19KT 10SM CLR 13/M03 A2983 RMK A01
KGKT 041935Z AUTO 28008G17KT 250V310 10SM CLR 13/M03 A2982 RMK A01
KGKT 041915Z AUTO 26006G14KT 10SM CLR 13/M03 A2982 RMK A01
KGKT 041855Z AUTO 27008G16KT 10SM CLR 13/M04 A2982 RMK A01
KGKT 041835Z AUTO 26012G19KT 10SM CLR 13/M04 A2982 RMK A01
KGKT 041815Z AUTO 27011KT 10SM CLR 12/M03 A2983 RMK A01
KGKT 041755Z AUTO 27012KT 10SM CLR 12/M03 A2984 RMK A01
KGKT 041735Z AUTO 26007KT 240V310 10SM CLR 13/M03 A2984 RMK A01
KGKT 041715Z AUTO 23007G15KT 210V270 10SM CLR 12/M01 A2985 RMK A01
KGKT 041655Z AUTO 22008KT 200V260 10SM CLR 12/M01 A2985 RMK A01
KGKT 041635Z AUTO VRB06G13KT 10SM CLR 11/M00 A2985 RMK A01
KGKT 041615Z AUTO 22012KT 10SM CLR 10/M00 A2986 RMK A01
KGKT 041555Z AUTO 24007G13KT 10SM CLR 10/M00 A2986 RMK A01
KGKT 041535Z AUTO 25010KT 10SM CLR 10/M00 A2987 RMK A01
KGKT 041510Z AUTO 25008KT 10SM CLR 08/M00 A2987 RMK A01
KGKT 041455Z AUTO 23007KT 10SM CLR 08/M00 A2986 RMK A01
KGKT 041435Z AUTO 22007KT 10SM CLR 07/M00 A2986 RMK A01
KGKT 041415Z AUTO 22008KT 10SM CLR 06/M01 A2986 RMK A01
KGKT 041355Z AUTO 23007KT 10SM CLR 05/M01 A2987 RMK A01
KGKT 041335Z AUTO 22007KT 10SM CLR 04/M01 A2987 RMK A01